Skip Navigation Links
NOAA logo - Click to go to the NOAA homepage
NOAA's National Weather Service
Alaska Aviation Weather Unit
  NWS logo - Click to go to the NWS homepage
Left Navbar Graphic     22 AKDT = 06 GMT

   
NOAA is celebrating 200 years of science, service, and stewardship. Visit the NOAA 200th celebration Web site to learn more.
USA.gov is the U.S. Government's official Web portal to all Federal, state and local government Web resources and services.
Facebook
NWS on Facebook

Important Change Regarding the AAWU Web Presence

 

Over the last several months, the AAWU has been working to navigate its webpages to a nationally supported server. Security, as well as other needs, have necessitated the change.  We have been given an extension for the site changeover while we diligently work at addressing feedback received. As of July 14, 2017, aawu.arh.noaa.gov will be discontinued. The new AAWU web address is weather.gov/aawu. It is now live and will run in-parallel with the old site until it is discontinued on July 14, 2017. Please continue to send any feedback or questions regarding the new webpages to nws.ar.aawu.webauthors@noaa.gov.  Thank you for your patience during this time of transition.
AAWU Home :: Display TAF Add Bookmark
TAF PADL 260530Z 2606/2706 VRB04KT P6SM OVC012
     FM260800 VRB02KT 4SM BR OVC007
     FM261500 25002KT P6SM OVC010=

PADL 260032Z 18008KT 3SM BR OVC011 13/12 A2994= SPECI PADL 260032Z 18008KT 3SM BR OVC011 13/12 A2994 RMK AO2 CIG 007V014 PNO $= METAR PADL 260056Z 18009KT 6SM BR BKN012 OVC080 13/12 A2993= METAR PADL 260156Z 18008KT 10SM BKN012 OVC080 14/12 A2992= METAR PADL 260356Z VRB03KT 10SM OVC014 15/13 A2991= METAR PADL 260456Z VRB03KT 10SM OVC014 14/13 A2992= METAR PADL 260556Z AUTO VRB03KT 10SM BKN014 OVC080 14/13 A2991= PADL 260603Z AUTO VRB03KT 10SM OVC017 14/13 A2991 RMK AO2 PNO $= SPECI PADL 260628Z AUTO VRB03KT 10SM SCT017 BKN060 14/13 A2991 RMK AO2 PNO $=
 Alaska TAF Map

NOAA's National Weather Service
Alaska Aviation Weather Unit
6930 Sand Lake Road
Anchorage, AK 99502-1845
Disclaimer
Credits
Glossary
Privacy Policy
About Us
Career Opportunities
Contact AAWU Internet Services Site last modified: April, 17th 2012